sensor_id;sensor_type;location;lat;lon;timestamp;pressure;altitude;pressure_sealevel;temperature;humidity
58658;BME280;44428;45.630;13.786;2023-02-13T00:00:21;103595.25;;;4.11;73.51
58658;BME280;44428;45.630;13.786;2023-02-13T00:02:47;103597.84;;;4.13;73.98
58658;BME280;44428;45.630;13.786;2023-02-13T00:05:13;103591.75;;;4.09;74.17
58658;BME280;44428;45.630;13.786;2023-02-13T00:07:39;103596.13;;;4.18;73.62
58658;BME280;44428;45.630;13.786;2023-02-13T00:10:07;103603.09;;;4.16;73.98
58658;BME280;44428;45.630;13.786;2023-02-13T00:12:33;103583.94;;;4.25;73.75
58658;BME280;44428;45.630;13.786;2023-02-13T00:14:59;103584.84;;;4.51;72.17
58658;BME280;44428;45.630;13.786;2023-02-13T00:17:26;103590.09;;;4.79;70.90
58658;BME280;44428;45.630;13.786;2023-02-13T00:19:52;103581.31;;;5.17;69.27
58658;BME280;44428;45.630;13.786;2023-02-13T00:22:18;103576.03;;;5.44;67.51
58658;BME280;44428;45.630;13.786;2023-02-13T00:24:44;103581.22;;;5.66;66.47
58658;BME280;44428;45.630;13.786;2023-02-13T00:27:10;103565.38;;;5.96;64.90
58658;BME280;44428;45.630;13.786;2023-02-13T00:29:36;103570.50;;;6.18;64.07
58658;BME280;44428;45.630;13.786;2023-02-13T00:32:02;103559.00;;;6.36;62.89
58658;BME280;44428;45.630;13.786;2023-02-13T00:34:28;103572.06;;;6.43;62.87
58658;BME280;44428;45.630;13.786;2023-02-13T00:36:54;103571.88;;;6.68;61.84
58658;BME280;44428;45.630;13.786;2023-02-13T00:39:20;103557.81;;;6.78;61.32
58658;BME280;44428;45.630;13.786;2023-02-13T00:41:47;103567.47;;;6.75;61.22
58658;BME280;44428;45.630;13.786;2023-02-13T00:44:13;103561.22;;;6.86;60.57
58658;BME280;44428;45.630;13.786;2023-02-13T00:46:39;103555.91;;;6.93;60.56
58658;BME280;44428;45.630;13.786;2023-02-13T00:49:05;103561.06;;;7.02;59.86
58658;BME280;44428;45.630;13.786;2023-02-13T00:51:33;103568.88;;;7.14;59.68
58658;BME280;44428;45.630;13.786;2023-02-13T00:54:00;103555.69;;;7.17;59.23
58658;BME280;44428;45.630;13.786;2023-02-13T00:56:26;103560.97;;;7.14;59.17
58658;BME280;44428;45.630;13.786;2023-02-13T00:58:52;103565.34;;;7.15;59.25
58658;BME280;44428;45.630;13.786;2023-02-13T01:01:19;103571.50;;;7.14;59.48
58658;BME280;44428;45.630;13.786;2023-02-13T01:03:49;103561.00;;;7.08;59.07
58658;BME280;44428;45.630;13.786;2023-02-13T01:06:25;103534.84;;;6.96;59.36
58658;BME280;44428;45.630;13.786;2023-02-13T01:09:05;103563.56;;;7.16;59.06
58658;BME280;44428;45.630;13.786;2023-02-13T01:12:10;103512.91;;;6.98;58.79
58658;BME280;44428;45.630;13.786;2023-02-13T01:14:42;103512.03;;;6.98;58.27
58658;BME280;44428;45.630;13.786;2023-02-13T01:17:47;103524.22;;;7.05;58.06
58658;BME280;44428;45.630;13.786;2023-02-13T01:20:32;103532.88;;;7.16;58.23
58658;BME280;44428;45.630;13.786;2023-02-13T01:23:42;103538.19;;;7.15;58.11
58658;BME280;44428;45.630;13.786;2023-02-13T01:26:26;103521.59;;;7.05;57.66
58658;BME280;44428;45.630;13.786;2023-02-13T01:29:34;103541.59;;;7.21;57.56
58658;BME280;44428;45.630;13.786;2023-02-13T01:32:10;103558.97;;;7.34;57.54
58658;BME280;44428;45.630;13.786;2023-02-13T01:35:03;103541.56;;;7.24;57.54
58658;BME280;44428;45.630;13.786;2023-02-13T01:37:35;103549.56;;;7.15;57.65
58658;BME280;44428;45.630;13.786;2023-02-13T01:40:21;103534.81;;;6.99;57.65
58658;BME280;44428;45.630;13.786;2023-02-13T01:43:49;103573.22;;;7.14;57.58
58658;BME280;44428;45.630;13.786;2023-02-13T01:46:45;103569.88;;;6.98;57.95
58658;BME280;44428;45.630;13.786;2023-02-13T01:49:38;103566.53;;;6.77;58.34
58658;BME280;44428;45.630;13.786;2023-02-13T01:52:37;103559.69;;;6.61;58.95
58658;BME280;44428;45.630;13.786;2023-02-13T01:55:22;103565.00;;;6.55;59.67
58658;BME280;44428;45.630;13.786;2023-02-13T01:58:21;103572.09;;;6.40;60.15
58658;BME280;44428;45.630;13.786;2023-02-13T02:01:13;103572.19;;;6.25;60.87
58658;BME280;44428;45.630;13.786;2023-02-13T02:04:10;103561.84;;;6.01;61.72
58658;BME280;44428;45.630;13.786;2023-02-13T02:07:16;103579.34;;;5.89;62.25
58658;BME280;44428;45.630;13.786;2023-02-13T02:09:59;103589.88;;;5.86;63.11
58658;BME280;44428;45.630;13.786;2023-02-13T02:12:44;103582.91;;;5.79;63.64
58658;BME280;44428;45.630;13.786;2023-02-13T02:15:12;103544.53;;;5.54;63.41
58658;BME280;44428;45.630;13.786;2023-02-13T02:17:52;103553.25;;;5.56;63.63
58658;BME280;44428;45.630;13.786;2023-02-13T02:24:16;103554.97;;;5.60;63.36
58658;BME280;44428;45.630;13.786;2023-02-13T02:30:35;103583.00;;;5.58;64.33
58658;BME280;44428;45.630;13.786;2023-02-13T02:36:32;103559.47;;;5.32;64.68
58658;BME280;44428;45.630;13.786;2023-02-13T02:39:02;103572.59;;;5.21;65.43
58658;BME280;44428;45.630;13.786;2023-02-13T02:44:30;103563.03;;;4.92;66.72
58658;BME280;44428;45.630;13.786;2023-02-13T02:47:59;103567.38;;;4.84;67.53
58658;BME280;44428;45.630;13.786;2023-02-13T02:55:50;103577.00;;;4.67;69.59
58658;BME280;44428;45.630;13.786;2023-02-13T02:58:44;103565.66;;;4.74;68.76
58658;BME280;44428;45.630;13.786;2023-02-13T03:01:32;103575.25;;;4.95;68.30
58658;BME280;44428;45.630;13.786;2023-02-13T03:04:39;103574.38;;;4.97;68.12
58658;BME280;44428;45.630;13.786;2023-02-13T03:07:25;103569.13;;;4.96;68.39
58658;BME280;44428;45.630;13.786;2023-02-13T03:09:55;103565.63;;;5.08;67.45
58658;BME280;44428;45.630;13.786;2023-02-13T03:12:51;103576.09;;;5.20;67.13
58658;BME280;44428;45.630;13.786;2023-02-13T03:15:41;103568.25;;;5.18;67.20
58658;BME280;44428;45.630;13.786;2023-02-13T03:18:29;103569.06;;;5.34;66.13
58658;BME280;44428;45.630;13.786;2023-02-13T03:21:31;103551.59;;;5.30;66.23
58658;BME280;44428;45.630;13.786;2023-02-13T03:33:40;103550.75;;;5.25;66.81
58658;BME280;44428;45.630;13.786;2023-02-13T03:39:11;103560.31;;;5.32;66.70
58658;BME280;44428;45.630;13.786;2023-02-13T03:41:54;103555.06;;;5.32;66.67
58658;BME280;44428;45.630;13.786;2023-02-13T03:46:58;103546.28;;;5.58;65.38
58658;BME280;44428;45.630;13.786;2023-02-13T03:49:46;103555.88;;;5.62;65.21
58658;BME280;44428;45.630;13.786;2023-02-13T03:52:38;103549.75;;;5.63;65.23
58658;BME280;44428;45.630;13.786;2023-02-13T03:55:17;103545.34;;;5.65;64.99
58658;BME280;44428;45.630;13.786;2023-02-13T03:58:07;103547.09;;;5.67;64.86
58658;BME280;44428;45.630;13.786;2023-02-13T04:00:56;103540.97;;;5.73;64.69
58658;BME280;44428;45.630;13.786;2023-02-13T04:03:24;103547.94;;;5.71;64.63
58658;BME280;44428;45.630;13.786;2023-02-13T04:06:04;103541.03;;;5.58;65.11
58658;BME280;44428;45.630;13.786;2023-02-13T04:08:32;103551.50;;;5.61;65.30
58658;BME280;44428;45.630;13.786;2023-02-13T04:11:18;103541.03;;;5.58;65.39
58658;BME280;44428;45.630;13.786;2023-02-13T04:13:58;103537.50;;;5.65;65.54
58658;BME280;44428;45.630;13.786;2023-02-13T04:16:34;103530.44;;;5.78;65.21
58658;BME280;44428;45.630;13.786;2023-02-13T04:19:04;103531.28;;;5.84;64.71
58658;BME280;44428;45.630;13.786;2023-02-13T04:21:36;103532.09;;;5.92;64.10
58658;BME280;44428;45.630;13.786;2023-02-13T04:24:03;103519.78;;;6.10;63.20
58658;BME280;44428;45.630;13.786;2023-02-13T04:26:39;103528.38;;;6.33;62.25
58658;BME280;44428;45.630;13.786;2023-02-13T04:29:06;103524.81;;;6.40;62.03
58658;BME280;44428;45.630;13.786;2023-02-13T04:31:33;103520.41;;;6.44;62.01
58658;BME280;44428;45.630;13.786;2023-02-13T04:33:59;103521.28;;;6.48;61.64
58658;BME280;44428;45.630;13.786;2023-02-13T04:36:26;103535.19;;;6.56;61.44
58658;BME280;44428;45.630;13.786;2023-02-13T04:38:52;103533.59;;;6.39;62.28
58658;BME280;44428;45.630;13.786;2023-02-13T04:41:18;103530.09;;;6.37;62.12
58658;BME280;44428;45.630;13.786;2023-02-13T04:43:47;103521.38;;;6.32;62.19
58658;BME280;44428;45.630;13.786;2023-02-13T04:46:13;103524.88;;;6.34;62.10
58658;BME280;44428;45.630;13.786;2023-02-13T04:48:39;103526.59;;;6.35;61.91
58658;BME280;44428;45.630;13.786;2023-02-13T04:51:05;103527.53;;;6.33;61.73
58658;BME280;44428;45.630;13.786;2023-02-13T04:53:32;103524.88;;;6.31;61.80
58658;BME280;44428;45.630;13.786;2023-02-13T04:55:58;103526.66;;;6.26;61.92
58658;BME280;44428;45.630;13.786;2023-02-13T04:58:24;103523.25;;;6.15;61.91
58658;BME280;44428;45.630;13.786;2023-02-13T05:00:50;103538.19;;;6.08;62.48
58658;BME280;44428;45.630;13.786;2023-02-13T05:03:16;103518.09;;;6.03;62.35
58658;BME280;44428;45.630;13.786;2023-02-13T05:05:42;103530.25;;;6.16;62.28
58658;BME280;44428;45.630;13.786;2023-02-13T05:08:09;103533.69;;;6.24;61.99
58658;BME280;44428;45.630;13.786;2023-02-13T05:10:36;103532.84;;;6.22;61.93
58658;BME280;44428;45.630;13.786;2023-02-13T05:13:02;103525.03;;;6.13;61.92
58658;BME280;44428;45.630;13.786;2023-02-13T05:15:28;103521.53;;;6.11;62.30
58658;BME280;44428;45.630;13.786;2023-02-13T05:17:54;103522.41;;;6.13;62.19
58658;BME280;44428;45.630;13.786;2023-02-13T05:20:21;103519.75;;;6.13;62.04
58658;BME280;44428;45.630;13.786;2023-02-13T05:22:49;103532.00;;;6.14;62.16
58658;BME280;44428;45.630;13.786;2023-02-13T05:25:36;103520.69;;;6.09;62.43
58658;BME280;44428;45.630;13.786;2023-02-13T05:28:04;103538.19;;;6.04;62.55
58658;BME280;44428;45.630;13.786;2023-02-13T05:30:50;103548.72;;;6.01;62.67
58658;BME280;44428;45.630;13.786;2023-02-13T05:33:16;103538.25;;;5.99;62.89
58658;BME280;44428;45.630;13.786;2023-02-13T05:35:43;103548.75;;;5.94;62.96
58658;BME280;44428;45.630;13.786;2023-02-13T05:38:09;103547.88;;;5.95;63.12
58658;BME280;44428;45.630;13.786;2023-02-13T05:40:35;103553.06;;;6.02;62.97
58658;BME280;44428;45.630;13.786;2023-02-13T05:43:01;103551.31;;;6.08;62.78
58658;BME280;44428;45.630;13.786;2023-02-13T05:45:27;103553.03;;;6.11;62.58
58658;BME280;44428;45.630;13.786;2023-02-13T05:47:53;103547.78;;;6.11;62.47
58658;BME280;44428;45.630;13.786;2023-02-13T05:50:19;103539.06;;;6.06;62.63
58658;BME280;44428;45.630;13.786;2023-02-13T05:52:45;103545.16;;;6.11;62.43
58658;BME280;44428;45.630;13.786;2023-02-13T05:55:11;103548.69;;;6.07;62.48
58658;BME280;44428;45.630;13.786;2023-02-13T05:57:38;103551.31;;;6.07;62.30
58658;BME280;44428;45.630;13.786;2023-02-13T06:00:05;103535.59;;;6.01;62.34
58658;BME280;44428;45.630;13.786;2023-02-13T06:02:31;103537.31;;;6.05;62.16
58658;BME280;44428;45.630;13.786;2023-02-13T06:04:58;103528.53;;;6.12;61.81
58658;BME280;44428;45.630;13.786;2023-02-13T06:07:25;103543.34;;;6.19;61.63
58658;BME280;44428;45.630;13.786;2023-02-13T06:09:51;103545.97;;;6.22;61.22
58658;BME280;44428;45.630;13.786;2023-02-13T06:12:17;103537.19;;;6.23;61.40
58658;BME280;44428;45.630;13.786;2023-02-13T06:14:43;103540.78;;;6.13;61.33
58658;BME280;44428;45.630;13.786;2023-02-13T06:17:09;103543.44;;;6.08;61.61
58658;BME280;44428;45.630;13.786;2023-02-13T06:19:35;103544.22;;;6.21;61.03
58658;BME280;44428;45.630;13.786;2023-02-13T06:22:01;103542.41;;;6.29;60.98
58658;BME280;44428;45.630;13.786;2023-02-13T06:24:27;103531.84;;;6.41;60.28
58658;BME280;44428;45.630;13.786;2023-02-13T06:26:53;103541.44;;;6.42;60.31
58658;BME280;44428;45.630;13.786;2023-02-13T06:29:19;103524.88;;;6.31;60.87
58658;BME280;44428;45.630;13.786;2023-02-13T06:31:45;103542.41;;;6.26;61.03
58658;BME280;44428;45.630;13.786;2023-02-13T06:34:11;103535.50;;;6.16;61.42
58658;BME280;44428;45.630;13.786;2023-02-13T06:36:37;103545.97;;;6.19;61.59
58658;BME280;44428;45.630;13.786;2023-02-13T06:39:03;103545.03;;;6.31;60.80
58658;BME280;44428;45.630;13.786;2023-02-13T06:41:29;103544.13;;;6.36;60.59
58658;BME280;44428;45.630;13.786;2023-02-13T06:43:55;103547.53;;;6.48;60.12
58658;BME280;44428;45.630;13.786;2023-02-13T06:46:22;103540.38;;;6.65;59.29
58658;BME280;44428;45.630;13.786;2023-02-13T06:48:48;103554.28;;;6.79;58.84
58658;BME280;44428;45.630;13.786;2023-02-13T06:51:14;103548.94;;;6.88;58.59
58658;BME280;44428;45.630;13.786;2023-02-13T06:53:40;103555.00;;;6.97;58.25
58658;BME280;44428;45.630;13.786;2023-02-13T06:56:06;103555.84;;;7.00;58.17
58658;BME280;44428;45.630;13.786;2023-02-13T06:58:32;103550.59;;;6.96;58.03
58658;BME280;44428;45.630;13.786;2023-02-13T07:00:59;103554.00;;;7.07;57.90
58658;BME280;44428;45.630;13.786;2023-02-13T07:03:25;103566.25;;;7.11;57.65
58658;BME280;44428;45.630;13.786;2023-02-13T07:05:51;103558.28;;;7.20;57.36
58658;BME280;44428;45.630;13.786;2023-02-13T07:08:18;103562.53;;;7.30;57.01
58658;BME280;44428;45.630;13.786;2023-02-13T07:10:44;103567.75;;;7.37;57.06
58658;BME280;44428;45.630;13.786;2023-02-13T07:13:10;103557.09;;;7.46;56.08
58658;BME280;44428;45.630;13.786;2023-02-13T07:15:37;103573.66;;;7.55;56.05
58658;BME280;44428;45.630;13.786;2023-02-13T07:18:04;103576.31;;;7.54;56.32
58658;BME280;44428;45.630;13.786;2023-02-13T07:20:30;103564.06;;;7.50;56.35
58658;BME280;44428;45.630;13.786;2023-02-13T07:22:58;103583.03;;;7.76;55.29
58658;BME280;44428;45.630;13.786;2023-02-13T07:25:25;103576.59;;;8.02;54.31
58658;BME280;44428;45.630;13.786;2023-02-13T07:27:51;103575.50;;;8.15;54.08
58658;BME280;44428;45.630;13.786;2023-02-13T07:30:20;103566.88;;;8.04;54.41
58658;BME280;44428;45.630;13.786;2023-02-13T07:32:46;103567.91;;;7.92;54.85
58658;BME280;44428;45.630;13.786;2023-02-13T07:35:13;103567.22;;;7.79;55.17
58658;BME280;44428;45.630;13.786;2023-02-13T07:37:39;103576.06;;;7.75;55.55
58658;BME280;44428;45.630;13.786;2023-02-13T07:40:06;103567.22;;;7.79;56.07
58658;BME280;44428;45.630;13.786;2023-02-13T07:42:32;103567.25;;;7.76;56.47
58658;BME280;44428;45.630;13.786;2023-02-13T07:45:00;103562.84;;;7.78;56.72
58658;BME280;44428;45.630;13.786;2023-02-13T07:47:29;103572.41;;;7.86;56.75
58658;BME280;44428;45.630;13.786;2023-02-13T07:49:55;103569.09;;;7.68;57.27
58658;BME280;44428;45.630;13.786;2023-02-13T07:52:21;103577.88;;;7.70;57.53
58658;BME280;44428;45.630;13.786;2023-02-13T07:54:48;103557.03;;;7.52;57.68
58658;BME280;44428;45.630;13.786;2023-02-13T07:57:15;103578.88;;;7.58;58.01
58658;BME280;44428;45.630;13.786;2023-02-13T07:59:41;103574.41;;;7.65;57.59
58658;BME280;44428;45.630;13.786;2023-02-13T08:02:14;103562.16;;;7.64;57.77
58658;BME280;44428;45.630;13.786;2023-02-13T08:04:41;103554.16;;;7.72;57.21
58658;BME280;44428;45.630;13.786;2023-02-13T08:07:11;103556.66;;;7.83;57.15
58658;BME280;44428;45.630;13.786;2023-02-13T08:09:39;103560.00;;;7.94;56.46
58658;BME280;44428;45.630;13.786;2023-02-13T08:12:23;103557.09;;;8.14;56.35
58658;BME280;44428;45.630;13.786;2023-02-13T08:14:49;103557.16;;;11.12;49.52
58658;BME280;44428;45.630;13.786;2023-02-13T08:17:15;103546.88;;;13.96;41.75
58658;BME280;44428;45.630;13.786;2023-02-13T08:19:41;103544.06;;;16.40;36.45
58658;BME280;44428;45.630;13.786;2023-02-13T08:22:08;103547.00;;;17.88;33.14
58658;BME280;44428;45.630;13.786;2023-02-13T08:24:34;103542.94;;;18.58;31.82
58658;BME280;44428;45.630;13.786;2023-02-13T08:27:00;103541.31;;;18.86;30.37
58658;BME280;44428;45.630;13.786;2023-02-13T08:29:26;103543.78;;;16.46;33.79
58658;BME280;44428;45.630;13.786;2023-02-13T08:31:52;103551.78;;;15.72;35.28
58658;BME280;44428;45.630;13.786;2023-02-13T08:34:19;103545.88;;;17.43;32.35
58658;BME280;44428;45.630;13.786;2023-02-13T08:36:45;103544.03;;;19.29;29.29
58658;BME280;44428;45.630;13.786;2023-02-13T08:39:11;103544.72;;;20.56;27.44
58658;BME280;44428;45.630;13.786;2023-02-13T08:41:37;103549.31;;;21.45;26.06
58658;BME280;44428;45.630;13.786;2023-02-13T08:44:03;103545.25;;;22.01;25.26
58658;BME280;44428;45.630;13.786;2023-02-13T08:46:29;103540.94;;;22.81;24.21
58658;BME280;44428;45.630;13.786;2023-02-13T08:48:55;103542.66;;;23.95;23.21
58658;BME280;44428;45.630;13.786;2023-02-13T08:51:21;103528.25;;;24.38;22.24
58658;BME280;44428;45.630;13.786;2023-02-13T08:53:48;103542.09;;;24.77;21.30
58658;BME280;44428;45.630;13.786;2023-02-13T08:56:14;103537.22;;;25.63;21.11
58658;BME280;44428;45.630;13.786;2023-02-13T08:58:40;103537.06;;;26.63;20.38
58658;BME280;44428;45.630;13.786;2023-02-13T09:01:07;103540.31;;;27.23;19.60
58658;BME280;44428;45.630;13.786;2023-02-13T09:03:34;103538.78;;;28.29;18.52
58658;BME280;44428;45.630;13.786;2023-02-13T09:06:00;103536.38;;;26.98;19.12
58658;BME280;44428;45.630;13.786;2023-02-13T09:08:27;103524.63;;;27.72;18.74
58658;BME280;44428;45.630;13.786;2023-02-13T09:10:58;103529.13;;;28.53;18.05
58658;BME280;44428;45.630;13.786;2023-02-13T09:13:27;103528.41;;;29.63;17.30
58658;BME280;44428;45.630;13.786;2023-02-13T09:16:00;103529.44;;;29.71;16.60
58658;BME280;44428;45.630;13.786;2023-02-13T09:18:27;103540.00;;;29.31;17.17
58658;BME280;44428;45.630;13.786;2023-02-13T09:20:58;103528.78;;;29.34;17.00
58658;BME280;44428;45.630;13.786;2023-02-13T09:23:24;103527.44;;;30.13;16.51
58658;BME280;44428;45.630;13.786;2023-02-13T09:25:50;103531.53;;;30.01;16.51
58658;BME280;44428;45.630;13.786;2023-02-13T09:28:16;103534.28;;;30.26;15.93
58658;BME280;44428;45.630;13.786;2023-02-13T09:30:42;103523.72;;;30.39;16.22
58658;BME280;44428;45.630;13.786;2023-02-13T09:33:09;103537.66;;;30.93;15.39
58658;BME280;44428;45.630;13.786;2023-02-13T09:35:37;103531.19;;;30.70;16.13
58658;BME280;44428;45.630;13.786;2023-02-13T09:38:06;103527.97;;;30.17;15.92
58658;BME280;44428;45.630;13.786;2023-02-13T09:40:42;103534.63;;;29.48;16.60
58658;BME280;44428;45.630;13.786;2023-02-13T09:43:24;103536.50;;;30.30;15.92
58658;BME280;44428;45.630;13.786;2023-02-13T09:45:55;103537.31;;;30.88;15.38
58658;BME280;44428;45.630;13.786;2023-02-13T09:48:28;103533.25;;;30.84;15.30
58658;BME280;44428;45.630;13.786;2023-02-13T09:50:56;103529.84;;;30.66;15.68
58658;BME280;44428;45.630;13.786;2023-02-13T09:53:25;103527.44;;;30.87;15.47
58658;BME280;44428;45.630;13.786;2023-02-13T09:56:12;103536.94;;;31.08;15.43
58658;BME280;44428;45.630;13.786;2023-02-13T09:58:42;103536.63;;;31.42;14.59
58658;BME280;44428;45.630;13.786;2023-02-13T10:01:31;103523.31;;;30.91;14.58
58658;BME280;44428;45.630;13.786;2023-02-13T10:04:44;103519.50;;;31.09;15.05
58658;BME280;44428;45.630;13.786;2023-02-13T10:07:48;103528.19;;;31.60;16.25
58658;BME280;44428;45.630;13.786;2023-02-13T10:15:49;103527.97;;;29.50;18.23
58658;BME280;44428;45.630;13.786;2023-02-13T10:18:32;103518.56;;;29.87;17.59
58658;BME280;44428;45.630;13.786;2023-02-13T10:21:02;103525.38;;;30.07;18.18
58658;BME280;44428;45.630;13.786;2023-02-13T10:23:43;103521.97;;;29.89;18.05
58658;BME280;44428;45.630;13.786;2023-02-13T10:26:22;103532.88;;;29.89;18.24
58658;BME280;44428;45.630;13.786;2023-02-13T10:29:30;103524.50;;;29.74;18.48
58658;BME280;44428;45.630;13.786;2023-02-13T10:32:21;103508.38;;;30.46;18.31
58658;BME280;44428;45.630;13.786;2023-02-13T10:34:52;103511.78;;;30.40;17.92
58658;BME280;44428;45.630;13.786;2023-02-13T10:37:21;103527.41;;;29.73;19.02
58658;BME280;44428;45.630;13.786;2023-02-13T10:39:51;103527.44;;;30.05;18.80
58658;BME280;44428;45.630;13.786;2023-02-13T10:42:39;103515.81;;;30.93;18.27
58658;BME280;44428;45.630;13.786;2023-02-13T10:47:50;103504.44;;;30.08;17.92
58658;BME280;44428;45.630;13.786;2023-02-13T10:50:29;103510.66;;;29.59;18.26
58658;BME280;44428;45.630;13.786;2023-02-13T10:58:57;103486.16;;;29.67;17.89
58658;BME280;44428;45.630;13.786;2023-02-13T11:01:52;103484.16;;;30.51;17.28
58658;BME280;44428;45.630;13.786;2023-02-13T11:04:22;103485.34;;;30.49;17.22
58658;BME280;44428;45.630;13.786;2023-02-13T11:06:59;103494.38;;;30.00;17.60
58658;BME280;44428;45.630;13.786;2023-02-13T11:09:27;103488.56;;;29.62;18.09
58658;BME280;44428;45.630;13.786;2023-02-13T11:11:55;103478.72;;;30.02;18.06
58658;BME280;44428;45.630;13.786;2023-02-13T11:14:23;103476.66;;;30.37;18.58
58658;BME280;44428;45.630;13.786;2023-02-13T11:17:05;103479.06;;;29.99;18.65
58658;BME280;44428;45.630;13.786;2023-02-13T11:19:52;103485.78;;;29.54;19.84
58658;BME280;44428;45.630;13.786;2023-02-13T11:22:38;103473.94;;;28.61;20.15
58658;BME280;44428;45.630;13.786;2023-02-13T11:27:49;103463.06;;;29.37;18.88
58658;BME280;44428;45.630;13.786;2023-02-13T11:33:26;103459.31;;;27.46;22.14
58658;BME280;44428;45.630;13.786;2023-02-13T11:36:13;103464.94;;;27.80;21.54
58658;BME280;44428;45.630;13.786;2023-02-13T11:38:40;103463.13;;;28.69;21.00
58658;BME280;44428;45.630;13.786;2023-02-13T11:41:12;103466.41;;;28.54;20.72
58658;BME280;44428;45.630;13.786;2023-02-13T11:43:48;103462.47;;;28.49;20.49
58658;BME280;44428;45.630;13.786;2023-02-13T11:46:21;103466.06;;;27.14;21.74
58658;BME280;44428;45.630;13.786;2023-02-13T11:49:01;103463.69;;;27.57;21.52
58658;BME280;44428;45.630;13.786;2023-02-13T11:51:54;103448.56;;;28.08;21.24
58658;BME280;44428;45.630;13.786;2023-02-13T11:54:35;103455.91;;;28.94;19.89
58658;BME280;44428;45.630;13.786;2023-02-13T11:57:22;103455.00;;;29.19;18.64
58658;BME280;44428;45.630;13.786;2023-02-13T11:59:51;103457.88;;;28.31;20.02
58658;BME280;44428;45.630;13.786;2023-02-13T12:02:20;103462.50;;;28.13;20.35
58658;BME280;44428;45.630;13.786;2023-02-13T12:04:49;103449.47;;;27.99;20.50
58658;BME280;44428;45.630;13.786;2023-02-13T12:09:46;103445.84;;;28.08;20.33
58658;BME280;44428;45.630;13.786;2023-02-13T12:12:38;103456.63;;;28.00;20.81
58658;BME280;44428;45.630;13.786;2023-02-13T12:15:38;103438.00;;;27.69;21.00
58658;BME280;44428;45.630;13.786;2023-02-13T12:27:06;103434.34;;;27.15;21.81
58658;BME280;44428;45.630;13.786;2023-02-13T12:29:32;103419.50;;;27.55;21.20
58658;BME280;44428;45.630;13.786;2023-02-13T12:32:16;103421.06;;;27.75;20.79
58658;BME280;44428;45.630;13.786;2023-02-13T12:34:54;103417.97;;;27.70;21.21
58658;BME280;44428;45.630;13.786;2023-02-13T12:37:45;103426.81;;;27.72;21.32
58658;BME280;44428;45.630;13.786;2023-02-13T12:46:20;103413.31;;;27.17;20.86
58658;BME280;44428;45.630;13.786;2023-02-13T12:49:34;103416.63;;;26.36;21.79
58658;BME280;44428;45.630;13.786;2023-02-13T12:55:13;103406.97;;;26.99;21.22
58658;BME280;44428;45.630;13.786;2023-02-13T12:57:53;103401.25;;;27.02;21.23
58658;BME280;44428;45.630;13.786;2023-02-13T13:00:48;103399.97;;;26.78;21.82
58658;BME280;44428;45.630;13.786;2023-02-13T13:03:23;103407.13;;;26.97;21.73
58658;BME280;44428;45.630;13.786;2023-02-13T13:22:56;103397.22;;;24.11;25.45
58658;BME280;44428;45.630;13.786;2023-02-13T13:25:40;103394.44;;;23.81;25.35
58658;BME280;44428;45.630;13.786;2023-02-13T13:28:33;103396.44;;;23.79;26.28
58658;BME280;44428;45.630;13.786;2023-02-13T13:31:04;103389.84;;;24.55;25.00
58658;BME280;44428;45.630;13.786;2023-02-13T13:33:38;103387.13;;;24.86;24.09
58658;BME280;44428;45.630;13.786;2023-02-13T13:42:15;103397.28;;;23.79;27.35
58658;BME280;44428;45.630;13.786;2023-02-13T13:45:00;103384.34;;;22.84;29.55
58658;BME280;44428;45.630;13.786;2023-02-13T13:50:27;103386.06;;;21.70;31.68
58658;BME280;44428;45.630;13.786;2023-02-13T13:53:18;103391.97;;;21.86;31.71
58658;BME280;44428;45.630;13.786;2023-02-13T13:58:39;103380.91;;;23.05;29.48
58658;BME280;44428;45.630;13.786;2023-02-13T14:01:29;103380.91;;;22.82;30.13
58658;BME280;44428;45.630;13.786;2023-02-13T14:03:57;103377.06;;;22.29;30.79
58658;BME280;44428;45.630;13.786;2023-02-13T14:11:52;103379.97;;;21.79;32.14
58658;BME280;44428;45.630;13.786;2023-02-13T14:17:04;103380.00;;;21.05;33.81
58658;BME280;44428;45.630;13.786;2023-02-13T14:19:39;103384.56;;;20.92;33.97
58658;BME280;44428;45.630;13.786;2023-02-13T14:24:53;103387.47;;;20.38;34.98
58658;BME280;44428;45.630;13.786;2023-02-13T14:27:22;103377.25;;;20.18;35.36
58658;BME280;44428;45.630;13.786;2023-02-13T14:29:49;103375.84;;;19.99;35.70
58658;BME280;44428;45.630;13.786;2023-02-13T14:32:20;103386.16;;;19.65;36.59
58658;BME280;44428;45.630;13.786;2023-02-13T14:34:54;103384.28;;;19.39;36.95
58658;BME280;44428;45.630;13.786;2023-02-13T14:37:26;103377.88;;;19.00;37.76
58658;BME280;44428;45.630;13.786;2023-02-13T14:42:42;103376.00;;;18.73;37.42
58658;BME280;44428;45.630;13.786;2023-02-13T14:45:15;103390.63;;;18.23;38.52
58658;BME280;44428;45.630;13.786;2023-02-13T14:47:53;103393.78;;;17.54;40.04
58658;BME280;44428;45.630;13.786;2023-02-13T14:50:28;103386.22;;;17.14;40.99
58658;BME280;44428;45.630;13.786;2023-02-13T14:52:58;103385.00;;;17.04;41.35
58658;BME280;44428;45.630;13.786;2023-02-13T14:55:38;103375.41;;;16.67;42.50
58658;BME280;44428;45.630;13.786;2023-02-13T14:58:11;103383.81;;;16.43;42.82
58658;BME280;44428;45.630;13.786;2023-02-13T15:05:52;103365.81;;;15.41;44.49
58658;BME280;44428;45.630;13.786;2023-02-13T15:08:22;103373.75;;;15.05;46.46
58658;BME280;44428;45.630;13.786;2023-02-13T15:10:50;103383.50;;;14.66;47.58
58658;BME280;44428;45.630;13.786;2023-02-13T15:13:20;103395.59;;;14.33;48.34
58658;BME280;44428;45.630;13.786;2023-02-13T15:15:57;103372.31;;;13.97;48.53
58658;BME280;44428;45.630;13.786;2023-02-13T15:18:27;103364.44;;;13.51;49.19
58658;BME280;44428;45.630;13.786;2023-02-13T15:20:56;103374.81;;;13.36;49.32